sensor_id;sensor_type;location;lat;lon;timestamp;temperature;humidity
8067;DHT22;4076;48.076;9.118;2023-08-30T00:00:04;12.40;99.90
8067;DHT22;4076;48.076;9.118;2023-08-30T00:02:30;12.40;99.90
8067;DHT22;4076;48.076;9.118;2023-08-30T00:05:02;12.40;99.90
8067;DHT22;4076;48.076;9.118;2023-08-30T00:07:28;12.40;99.90
8067;DHT22;4076;48.076;9.118;2023-08-30T00:09:54;12.40;99.90
8067;DHT22;4076;48.076;9.118;2023-08-30T00:12:19;12.40;99.90
8067;DHT22;4076;48.076;9.118;2023-08-30T00:14:45;12.30;99.90
8067;DHT22;4076;48.076;9.118;2023-08-30T00:17:11;12.30;99.90
8067;DHT22;4076;48.076;9.118;2023-08-30T00:19:36;12.30;99.90
8067;DHT22;4076;48.076;9.118;2023-08-30T00:22:02;12.30;99.90
8067;DHT22;4076;48.076;9.118;2023-08-30T00:24:28;12.20;99.90
8067;DHT22;4076;48.076;9.118;2023-08-30T00:26:53;12.30;99.90
8067;DHT22;4076;48.076;9.118;2023-08-30T00:29:19;12.20;99.90
8067;DHT22;4076;48.076;9.118;2023-08-30T00:31:44;12.20;99.90
8067;DHT22;4076;48.076;9.118;2023-08-30T00:34:10;12.20;99.90
8067;DHT22;4076;48.076;9.118;2023-08-30T00:36:36;12.20;99.90
8067;DHT22;4076;48.076;9.118;2023-08-30T00:39:02;12.20;99.90
8067;DHT22;4076;48.076;9.118;2023-08-30T00:41:29;12.20;99.90
8067;DHT22;4076;48.076;9.118;2023-08-30T00:43:54;12.10;99.90
8067;DHT22;4076;48.076;9.118;2023-08-30T00:46:20;12.10;99.90
8067;DHT22;4076;48.076;9.118;2023-08-30T00:48:45;12.10;99.90
8067;DHT22;4076;48.076;9.118;2023-08-30T00:51:11;12.10;99.90
8067;DHT22;4076;48.076;9.118;2023-08-30T00:53:37;12.10;99.90
8067;DHT22;4076;48.076;9.118;2023-08-30T00:56:03;12.20;99.90
8067;DHT22;4076;48.076;9.118;2023-08-30T00:58:29;12.20;99.90
8067;DHT22;4076;48.076;9.118;2023-08-30T01:00:54;12.20;99.90
8067;DHT22;4076;48.076;9.118;2023-08-30T01:03:20;12.20;99.90
8067;DHT22;4076;48.076;9.118;2023-08-30T01:05:47;12.20;99.90
8067;DHT22;4076;48.076;9.118;2023-08-30T01:08:13;12.20;99.90
8067;DHT22;4076;48.076;9.118;2023-08-30T01:13:28;12.20;99.90
8067;DHT22;4076;48.076;9.118;2023-08-30T01:15:57;12.20;99.90
8067;DHT22;4076;48.076;9.118;2023-08-30T01:18:26;12.20;99.90
8067;DHT22;4076;48.076;9.118;2023-08-30T01:20:53;12.20;99.90
8067;DHT22;4076;48.076;9.118;2023-08-30T01:23:40;12.20;99.90
8067;DHT22;4076;48.076;9.118;2023-08-30T01:26:29;12.20;99.90
8067;DHT22;4076;48.076;9.118;2023-08-30T01:29:02;12.20;99.90
8067;DHT22;4076;48.076;9.118;2023-08-30T01:31:29;12.20;99.90
8067;DHT22;4076;48.076;9.118;2023-08-30T01:33:56;12.20;99.90
8067;DHT22;4076;48.076;9.118;2023-08-30T01:36:22;12.20;99.90
8067;DHT22;4076;48.076;9.118;2023-08-30T01:38:48;12.30;99.90
8067;DHT22;4076;48.076;9.118;2023-08-30T01:41:15;12.30;99.90
8067;DHT22;4076;48.076;9.118;2023-08-30T01:43:41;12.20;99.90
8067;DHT22;4076;48.076;9.118;2023-08-30T01:46:08;12.30;99.90
8067;DHT22;4076;48.076;9.118;2023-08-30T01:48:35;12.30;99.90
8067;DHT22;4076;48.076;9.118;2023-08-30T01:51:01;12.30;99.90
8067;DHT22;4076;48.076;9.118;2023-08-30T01:53:28;12.30;99.90
8067;DHT22;4076;48.076;9.118;2023-08-30T01:55:54;12.30;99.90
8067;DHT22;4076;48.076;9.118;2023-08-30T01:58:19;12.30;99.90
8067;DHT22;4076;48.076;9.118;2023-08-30T02:00:46;12.40;99.90
8067;DHT22;4076;48.076;9.118;2023-08-30T02:03:12;12.40;99.90
8067;DHT22;4076;48.076;9.118;2023-08-30T02:08:36;12.40;99.90
8067;DHT22;4076;48.076;9.118;2023-08-30T02:11:07;12.40;99.90
8067;DHT22;4076;48.076;9.118;2023-08-30T02:13:33;12.40;99.90
8067;DHT22;4076;48.076;9.118;2023-08-30T02:16:01;12.40;99.90
8067;DHT22;4076;48.076;9.118;2023-08-30T02:18:27;12.40;99.90
8067;DHT22;4076;48.076;9.118;2023-08-30T02:20:53;12.40;99.90
8067;DHT22;4076;48.076;9.118;2023-08-30T02:23:23;12.40;99.90
8067;DHT22;4076;48.076;9.118;2023-08-30T02:25:49;12.40;99.90
8067;DHT22;4076;48.076;9.118;2023-08-30T02:28:15;12.30;99.90
8067;DHT22;4076;48.076;9.118;2023-08-30T02:30:40;12.30;99.90
8067;DHT22;4076;48.076;9.118;2023-08-30T02:33:06;12.30;99.90
8067;DHT22;4076;48.076;9.118;2023-08-30T02:35:32;12.30;99.90
8067;DHT22;4076;48.076;9.118;2023-08-30T02:37:57;12.30;99.90
8067;DHT22;4076;48.076;9.118;2023-08-30T02:40:23;12.30;99.90
8067;DHT22;4076;48.076;9.118;2023-08-30T02:42:48;12.30;99.90
8067;DHT22;4076;48.076;9.118;2023-08-30T02:45:14;12.40;99.90
8067;DHT22;4076;48.076;9.118;2023-08-30T02:47:39;12.40;99.90
8067;DHT22;4076;48.076;9.118;2023-08-30T02:50:05;12.40;99.90
8067;DHT22;4076;48.076;9.118;2023-08-30T02:52:31;12.40;99.90
8067;DHT22;4076;48.076;9.118;2023-08-30T02:54:56;12.40;99.90
8067;DHT22;4076;48.076;9.118;2023-08-30T02:57:22;12.40;99.90
8067;DHT22;4076;48.076;9.118;2023-08-30T02:59:47;12.40;99.90
8067;DHT22;4076;48.076;9.118;2023-08-30T03:02:13;12.40;99.90
8067;DHT22;4076;48.076;9.118;2023-08-30T03:04:38;12.40;99.90
8067;DHT22;4076;48.076;9.118;2023-08-30T03:07:04;12.40;99.90
8067;DHT22;4076;48.076;9.118;2023-08-30T03:09:29;12.30;99.90
8067;DHT22;4076;48.076;9.118;2023-08-30T03:11:55;12.30;99.90
8067;DHT22;4076;48.076;9.118;2023-08-30T03:14:21;12.30;99.90
8067;DHT22;4076;48.076;9.118;2023-08-30T03:16:46;12.30;99.90
8067;DHT22;4076;48.076;9.118;2023-08-30T03:19:12;12.30;99.90
8067;DHT22;4076;48.076;9.118;2023-08-30T03:21:38;12.30;99.90
8067;DHT22;4076;48.076;9.118;2023-08-30T03:24:04;12.30;99.90
8067;DHT22;4076;48.076;9.118;2023-08-30T03:26:29;12.40;99.90
8067;DHT22;4076;48.076;9.118;2023-08-30T03:28:55;12.40;99.90
8067;DHT22;4076;48.076;9.118;2023-08-30T03:31:21;12.40;99.90
8067;DHT22;4076;48.076;9.118;2023-08-30T03:33:49;12.40;99.90
8067;DHT22;4076;48.076;9.118;2023-08-30T03:36:16;12.40;99.90
8067;DHT22;4076;48.076;9.118;2023-08-30T03:38:43;12.40;99.90
8067;DHT22;4076;48.076;9.118;2023-08-30T03:41:10;12.40;99.90
8067;DHT22;4076;48.076;9.118;2023-08-30T03:43:35;12.40;99.90
8067;DHT22;4076;48.076;9.118;2023-08-30T03:46:01;12.40;99.90
8067;DHT22;4076;48.076;9.118;2023-08-30T03:48:27;12.40;99.90
8067;DHT22;4076;48.076;9.118;2023-08-30T03:50:54;12.40;99.90
8067;DHT22;4076;48.076;9.118;2023-08-30T03:53:20;12.40;99.90
8067;DHT22;4076;48.076;9.118;2023-08-30T03:55:45;12.40;99.90
8067;DHT22;4076;48.076;9.118;2023-08-30T03:58:11;12.40;99.90
8067;DHT22;4076;48.076;9.118;2023-08-30T04:00:38;12.30;99.90
8067;DHT22;4076;48.076;9.118;2023-08-30T04:03:04;12.30;99.90
8067;DHT22;4076;48.076;9.118;2023-08-30T04:05:33;12.30;99.90
8067;DHT22;4076;48.076;9.118;2023-08-30T04:08:01;12.30;99.90
8067;DHT22;4076;48.076;9.118;2023-08-30T04:10:26;12.30;99.90
8067;DHT22;4076;48.076;9.118;2023-08-30T04:12:52;12.30;99.90
8067;DHT22;4076;48.076;9.118;2023-08-30T04:15:18;12.30;99.90
8067;DHT22;4076;48.076;9.118;2023-08-30T04:17:43;12.20;99.90
8067;DHT22;4076;48.076;9.118;2023-08-30T04:20:09;12.30;99.90
8067;DHT22;4076;48.076;9.118;2023-08-30T04:22:36;12.20;99.90
8067;DHT22;4076;48.076;9.118;2023-08-30T04:25:02;12.20;99.90
8067;DHT22;4076;48.076;9.118;2023-08-30T04:27:28;12.20;99.90
8067;DHT22;4076;48.076;9.118;2023-08-30T04:29:53;12.20;99.90
8067;DHT22;4076;48.076;9.118;2023-08-30T04:32:19;12.30;99.90
8067;DHT22;4076;48.076;9.118;2023-08-30T04:34:45;12.30;99.90
8067;DHT22;4076;48.076;9.118;2023-08-30T04:37:10;12.30;99.90
8067;DHT22;4076;48.076;9.118;2023-08-30T04:39:36;12.30;99.90
8067;DHT22;4076;48.076;9.118;2023-08-30T04:42:01;12.30;99.90
8067;DHT22;4076;48.076;9.118;2023-08-30T04:44:28;12.30;99.90
8067;DHT22;4076;48.076;9.118;2023-08-30T04:46:54;12.30;99.90
8067;DHT22;4076;48.076;9.118;2023-08-30T04:49:20;12.30;99.90
8067;DHT22;4076;48.076;9.118;2023-08-30T04:51:46;12.30;99.90
8067;DHT22;4076;48.076;9.118;2023-08-30T04:54:11;12.30;99.90
8067;DHT22;4076;48.076;9.118;2023-08-30T04:56:37;12.30;99.90
8067;DHT22;4076;48.076;9.118;2023-08-30T04:59:02;12.20;99.90
8067;DHT22;4076;48.076;9.118;2023-08-30T05:01:29;12.20;99.90
8067;DHT22;4076;48.076;9.118;2023-08-30T05:03:55;12.20;99.90
8067;DHT22;4076;48.076;9.118;2023-08-30T05:06:21;12.20;99.90
8067;DHT22;4076;48.076;9.118;2023-08-30T05:08:46;12.20;99.90
8067;DHT22;4076;48.076;9.118;2023-08-30T05:11:12;12.20;99.90
8067;DHT22;4076;48.076;9.118;2023-08-30T05:13:38;12.20;99.90
8067;DHT22;4076;48.076;9.118;2023-08-30T05:16:04;12.30;99.90
8067;DHT22;4076;48.076;9.118;2023-08-30T05:18:30;12.30;99.90
8067;DHT22;4076;48.076;9.118;2023-08-30T05:20:55;12.30;99.90
8067;DHT22;4076;48.076;9.118;2023-08-30T05:23:21;12.30;99.90
8067;DHT22;4076;48.076;9.118;2023-08-30T05:25:46;12.30;99.90
8067;DHT22;4076;48.076;9.118;2023-08-30T05:28:12;12.30;99.90
8067;DHT22;4076;48.076;9.118;2023-08-30T05:30:42;12.40;99.90
8067;DHT22;4076;48.076;9.118;2023-08-30T05:33:07;12.40;99.90
8067;DHT22;4076;48.076;9.118;2023-08-30T05:35:33;12.50;99.90
8067;DHT22;4076;48.076;9.118;2023-08-30T05:37:59;12.50;99.90
8067;DHT22;4076;48.076;9.118;2023-08-30T05:40:24;12.50;99.90
8067;DHT22;4076;48.076;9.118;2023-08-30T05:42:50;12.50;99.90
8067;DHT22;4076;48.076;9.118;2023-08-30T05:45:15;12.50;99.90
8067;DHT22;4076;48.076;9.118;2023-08-30T05:47:41;12.40;99.90
8067;DHT22;4076;48.076;9.118;2023-08-30T05:50:07;12.40;99.90
8067;DHT22;4076;48.076;9.118;2023-08-30T05:52:33;12.40;99.90
8067;DHT22;4076;48.076;9.118;2023-08-30T05:54:59;12.40;99.90
8067;DHT22;4076;48.076;9.118;2023-08-30T05:57:24;12.50;99.90
8067;DHT22;4076;48.076;9.118;2023-08-30T05:59:51;12.50;99.90
8067;DHT22;4076;48.076;9.118;2023-08-30T06:02:16;12.60;99.90
8067;DHT22;4076;48.076;9.118;2023-08-30T06:04:42;12.70;99.90
8067;DHT22;4076;48.076;9.118;2023-08-30T06:07:07;12.70;99.90
8067;DHT22;4076;48.076;9.118;2023-08-30T06:09:33;12.80;99.90
8067;DHT22;4076;48.076;9.118;2023-08-30T06:11:59;12.80;99.90
8067;DHT22;4076;48.076;9.118;2023-08-30T06:14:24;12.80;99.90
8067;DHT22;4076;48.076;9.118;2023-08-30T06:16:50;12.80;99.90
8067;DHT22;4076;48.076;9.118;2023-08-30T06:19:15;12.70;99.90
8067;DHT22;4076;48.076;9.118;2023-08-30T06:21:41;12.70;99.90
8067;DHT22;4076;48.076;9.118;2023-08-30T06:24:07;12.70;99.90
8067;DHT22;4076;48.076;9.118;2023-08-30T06:26:32;12.80;99.90
8067;DHT22;4076;48.076;9.118;2023-08-30T06:28:58;12.80;99.90
8067;DHT22;4076;48.076;9.118;2023-08-30T06:31:24;12.80;99.90
8067;DHT22;4076;48.076;9.118;2023-08-30T06:33:49;12.90;99.90
8067;DHT22;4076;48.076;9.118;2023-08-30T06:36:16;12.90;99.90
8067;DHT22;4076;48.076;9.118;2023-08-30T06:38:43;12.90;99.90
8067;DHT22;4076;48.076;9.118;2023-08-30T06:41:08;12.90;99.90
8067;DHT22;4076;48.076;9.118;2023-08-30T06:43:34;12.90;99.90
8067;DHT22;4076;48.076;9.118;2023-08-30T06:45:59;12.90;99.90
8067;DHT22;4076;48.076;9.118;2023-08-30T06:48:25;12.90;99.90
8067;DHT22;4076;48.076;9.118;2023-08-30T06:50:51;13.00;99.90
8067;DHT22;4076;48.076;9.118;2023-08-30T06:53:16;13.00;99.90
8067;DHT22;4076;48.076;9.118;2023-08-30T06:55:42;13.00;99.90
8067;DHT22;4076;48.076;9.118;2023-08-30T06:58:07;13.00;99.90
8067;DHT22;4076;48.076;9.118;2023-08-30T07:00:33;13.10;99.90
8067;DHT22;4076;48.076;9.118;2023-08-30T07:02:59;13.10;99.90
8067;DHT22;4076;48.076;9.118;2023-08-30T07:05:24;13.20;99.90
8067;DHT22;4076;48.076;9.118;2023-08-30T07:07:50;13.30;99.90
8067;DHT22;4076;48.076;9.118;2023-08-30T07:10:16;13.40;99.90
8067;DHT22;4076;48.076;9.118;2023-08-30T07:12:41;13.40;99.90
8067;DHT22;4076;48.076;9.118;2023-08-30T07:15:08;13.40;99.90
8067;DHT22;4076;48.076;9.118;2023-08-30T07:17:33;13.50;99.90
8067;DHT22;4076;48.076;9.118;2023-08-30T07:19:59;13.60;99.90
8067;DHT22;4076;48.076;9.118;2023-08-30T07:22:24;13.70;99.90
8067;DHT22;4076;48.076;9.118;2023-08-30T07:24:50;13.70;99.90
8067;DHT22;4076;48.076;9.118;2023-08-30T07:27:16;13.80;99.90
8067;DHT22;4076;48.076;9.118;2023-08-30T07:29:41;13.80;99.90
8067;DHT22;4076;48.076;9.118;2023-08-30T07:32:07;13.90;99.90
8067;DHT22;4076;48.076;9.118;2023-08-30T07:34:33;14.00;99.90
8067;DHT22;4076;48.076;9.118;2023-08-30T07:36:59;14.00;99.90
8067;DHT22;4076;48.076;9.118;2023-08-30T07:39:24;14.10;99.90
8067;DHT22;4076;48.076;9.118;2023-08-30T07:41:50;14.30;99.90
8067;DHT22;4076;48.076;9.118;2023-08-30T07:44:15;14.40;99.90
8067;DHT22;4076;48.076;9.118;2023-08-30T07:46:41;14.50;99.90
8067;DHT22;4076;48.076;9.118;2023-08-30T07:49:07;14.60;99.90
8067;DHT22;4076;48.076;9.118;2023-08-30T07:51:32;14.70;99.90
8067;DHT22;4076;48.076;9.118;2023-08-30T07:53:58;14.70;99.90
8067;DHT22;4076;48.076;9.118;2023-08-30T07:56:23;14.90;99.90
8067;DHT22;4076;48.076;9.118;2023-08-30T07:58:49;15.10;99.90
8067;DHT22;4076;48.076;9.118;2023-08-30T08:01:15;15.40;99.90
8067;DHT22;4076;48.076;9.118;2023-08-30T08:03:40;15.60;99.90
8067;DHT22;4076;48.076;9.118;2023-08-30T08:06:06;15.90;99.90
8067;DHT22;4076;48.076;9.118;2023-08-30T08:08:32;16.10;99.90
8067;DHT22;4076;48.076;9.118;2023-08-30T08:10:59;16.80;99.90
8067;DHT22;4076;48.076;9.118;2023-08-30T08:13:25;17.40;99.90
8067;DHT22;4076;48.076;9.118;2023-08-30T08:15:51;17.80;99.90
8067;DHT22;4076;48.076;9.118;2023-08-30T08:18:16;18.00;99.90
8067;DHT22;4076;48.076;9.118;2023-08-30T08:20:42;18.00;99.90
8067;DHT22;4076;48.076;9.118;2023-08-30T08:23:08;18.10;99.90
8067;DHT22;4076;48.076;9.118;2023-08-30T08:25:34;18.50;99.90
8067;DHT22;4076;48.076;9.118;2023-08-30T08:27:59;18.70;99.90
8067;DHT22;4076;48.076;9.118;2023-08-30T08:30:25;19.00;99.90
8067;DHT22;4076;48.076;9.118;2023-08-30T08:32:50;19.20;99.90
8067;DHT22;4076;48.076;9.118;2023-08-30T08:35:16;20.80;99.90
8067;DHT22;4076;48.076;9.118;2023-08-30T08:37:42;22.80;91.60
8067;DHT22;4076;48.076;9.118;2023-08-30T08:40:08;23.60;75.00
8067;DHT22;4076;48.076;9.118;2023-08-30T08:42:36;23.40;70.30
8067;DHT22;4076;48.076;9.118;2023-08-30T08:45:03;22.90;72.90
8067;DHT22;4076;48.076;9.118;2023-08-30T08:47:30;22.20;72.70
8067;DHT22;4076;48.076;9.118;2023-08-30T08:49:56;21.70;71.60
8067;DHT22;4076;48.076;9.118;2023-08-30T08:52:23;22.40;71.00
8067;DHT22;4076;48.076;9.118;2023-08-30T08:54:49;24.30;68.60
8067;DHT22;4076;48.076;9.118;2023-08-30T08:57:15;26.10;58.80
8067;DHT22;4076;48.076;9.118;2023-08-30T08:59:40;27.60;54.40
8067;DHT22;4076;48.076;9.118;2023-08-30T09:02:07;28.30;51.70
8067;DHT22;4076;48.076;9.118;2023-08-30T09:04:33;28.30;50.20
8067;DHT22;4076;48.076;9.118;2023-08-30T09:06:59;28.70;48.90
8067;DHT22;4076;48.076;9.118;2023-08-30T09:09:26;29.50;48.80
8067;DHT22;4076;48.076;9.118;2023-08-30T09:11:51;30.30;49.00
8067;DHT22;4076;48.076;9.118;2023-08-30T09:14:18;31.10;55.10
8067;DHT22;4076;48.076;9.118;2023-08-30T09:16:53;31.50;44.00
8067;DHT22;4076;48.076;9.118;2023-08-30T09:19:20;31.50;43.90
8067;DHT22;4076;48.076;9.118;2023-08-30T09:21:58;31.50;45.10
8067;DHT22;4076;48.076;9.118;2023-08-30T09:24:24;31.50;46.20
8067;DHT22;4076;48.076;9.118;2023-08-30T09:26:52;30.80;45.40
8067;DHT22;4076;48.076;9.118;2023-08-30T09:29:19;29.90;43.90
8067;DHT22;4076;48.076;9.118;2023-08-30T09:31:45;29.60;46.10
8067;DHT22;4076;48.076;9.118;2023-08-30T09:34:10;29.50;45.40
8067;DHT22;4076;48.076;9.118;2023-08-30T09:36:40;29.60;45.30
8067;DHT22;4076;48.076;9.118;2023-08-30T09:39:10;30.00;42.80
8067;DHT22;4076;48.076;9.118;2023-08-30T09:41:40;30.20;41.60
8067;DHT22;4076;48.076;9.118;2023-08-30T09:44:09;29.70;41.90
8067;DHT22;4076;48.076;9.118;2023-08-30T09:46:44;29.60;43.20
8067;DHT22;4076;48.076;9.118;2023-08-30T09:49:10;29.80;42.40
8067;DHT22;4076;48.076;9.118;2023-08-30T09:51:41;29.30;43.90
8067;DHT22;4076;48.076;9.118;2023-08-30T09:54:15;28.70;44.50
8067;DHT22;4076;48.076;9.118;2023-08-30T09:56:44;28.10;44.50
8067;DHT22;4076;48.076;9.118;2023-08-30T09:59:11;27.10;45.50
8067;DHT22;4076;48.076;9.118;2023-08-30T10:01:38;26.60;47.00
8067;DHT22;4076;48.076;9.118;2023-08-30T10:04:04;26.30;46.90
8067;DHT22;4076;48.076;9.118;2023-08-30T10:06:32;26.20;47.20
8067;DHT22;4076;48.076;9.118;2023-08-30T10:08:59;25.80;47.90
8067;DHT22;4076;48.076;9.118;2023-08-30T10:11:25;25.30;47.80
8067;DHT22;4076;48.076;9.118;2023-08-30T10:13:52;24.90;49.50
8067;DHT22;4076;48.076;9.118;2023-08-30T10:16:22;24.60;49.60
8067;DHT22;4076;48.076;9.118;2023-08-30T10:18:52;24.30;50.60
8067;DHT22;4076;48.076;9.118;2023-08-30T10:21:19;24.40;51.30
8067;DHT22;4076;48.076;9.118;2023-08-30T10:23:47;24.50;51.50
8067;DHT22;4076;48.076;9.118;2023-08-30T10:26:16;24.40;50.60
8067;DHT22;4076;48.076;9.118;2023-08-30T10:28:43;24.20;50.00
8067;DHT22;4076;48.076;9.118;2023-08-30T10:31:09;24.00;50.30
8067;DHT22;4076;48.076;9.118;2023-08-30T10:33:52;23.70;50.00
8067;DHT22;4076;48.076;9.118;2023-08-30T10:36:25;23.50;50.80
8067;DHT22;4076;48.076;9.118;2023-08-30T10:38:54;23.50;51.20
8067;DHT22;4076;48.076;9.118;2023-08-30T10:41:25;23.50;51.00
8067;DHT22;4076;48.076;9.118;2023-08-30T10:43:54;23.30;51.20
8067;DHT22;4076;48.076;9.118;2023-08-30T10:46:33;23.20;52.80
8067;DHT22;4076;48.076;9.118;2023-08-30T10:49:11;23.10;51.70
8067;DHT22;4076;48.076;9.118;2023-08-30T10:51:38;23.10;52.10
8067;DHT22;4076;48.076;9.118;2023-08-30T10:54:15;23.10;53.10
8067;DHT22;4076;48.076;9.118;2023-08-30T10:56:47;23.10;52.80
8067;DHT22;4076;48.076;9.118;2023-08-30T10:59:19;23.00;51.30
8067;DHT22;4076;48.076;9.118;2023-08-30T11:01:47;22.70;52.30
8067;DHT22;4076;48.076;9.118;2023-08-30T11:04:14;22.50;52.80
8067;DHT22;4076;48.076;9.118;2023-08-30T11:06:45;22.40;55.20
8067;DHT22;4076;48.076;9.118;2023-08-30T11:09:16;22.30;53.90
8067;DHT22;4076;48.076;9.118;2023-08-30T11:11:49;22.30;55.10
8067;DHT22;4076;48.076;9.118;2023-08-30T11:14:16;22.40;55.40
8067;DHT22;4076;48.076;9.118;2023-08-30T11:16:42;22.60;55.30
8067;DHT22;4076;48.076;9.118;2023-08-30T11:19:09;22.60;54.90
8067;DHT22;4076;48.076;9.118;2023-08-30T11:21:38;22.50;54.90
8067;DHT22;4076;48.076;9.118;2023-08-30T11:24:04;22.60;55.30
8067;DHT22;4076;48.076;9.118;2023-08-30T11:26:30;22.70;55.20
8067;DHT22;4076;48.076;9.118;2023-08-30T11:28:56;22.80;54.80
8067;DHT22;4076;48.076;9.118;2023-08-30T11:31:22;22.90;55.60
8067;DHT22;4076;48.076;9.118;2023-08-30T11:33:55;22.90;54.40
8067;DHT22;4076;48.076;9.118;2023-08-30T11:36:23;22.70;54.20
8067;DHT22;4076;48.076;9.118;2023-08-30T11:38:50;22.50;54.10
8067;DHT22;4076;48.076;9.118;2023-08-30T11:41:16;22.40;55.30
8067;DHT22;4076;48.076;9.118;2023-08-30T11:43:41;22.30;56.10
8067;DHT22;4076;48.076;9.118;2023-08-30T11:46:08;22.40;56.40
8067;DHT22;4076;48.076;9.118;2023-08-30T11:48:35;22.60;56.00
8067;DHT22;4076;48.076;9.118;2023-08-30T11:51:01;22.70;55.80
8067;DHT22;4076;48.076;9.118;2023-08-30T11:53:26;22.90;55.90
8067;DHT22;4076;48.076;9.118;2023-08-30T11:55:53;23.00;54.00
8067;DHT22;4076;48.076;9.118;2023-08-30T11:58:18;22.60;53.30
8067;DHT22;4076;48.076;9.118;2023-08-30T12:00:45;22.30;54.80
8067;DHT22;4076;48.076;9.118;2023-08-30T12:03:13;22.00;55.00
8067;DHT22;4076;48.076;9.118;2023-08-30T12:05:47;22.10;56.20
8067;DHT22;4076;48.076;9.118;2023-08-30T12:08:20;22.20;55.60
8067;DHT22;4076;48.076;9.118;2023-08-30T12:10:46;22.00;54.50
8067;DHT22;4076;48.076;9.118;2023-08-30T12:13:30;21.80;55.10
8067;DHT22;4076;48.076;9.118;2023-08-30T12:15:57;21.60;55.20
8067;DHT22;4076;48.076;9.118;2023-08-30T12:18:24;21.50;55.70
8067;DHT22;4076;48.076;9.118;2023-08-30T12:20:57;21.30;55.80
8067;DHT22;4076;48.076;9.118;2023-08-30T12:23:24;21.20;57.00
8067;DHT22;4076;48.076;9.118;2023-08-30T12:26:08;21.40;57.80
8067;DHT22;4076;48.076;9.118;2023-08-30T12:28:36;21.70;57.60
8067;DHT22;4076;48.076;9.118;2023-08-30T12:31:02;22.00;57.10
8067;DHT22;4076;48.076;9.118;2023-08-30T12:33:33;22.00;55.80
8067;DHT22;4076;48.076;9.118;2023-08-30T12:35:59;21.90;55.60
8067;DHT22;4076;48.076;9.118;2023-08-30T12:38:26;21.80;56.50
8067;DHT22;4076;48.076;9.118;2023-08-30T12:40:53;21.50;56.10
8067;DHT22;4076;48.076;9.118;2023-08-30T12:43:19;21.40;56.00
8067;DHT22;4076;48.076;9.118;2023-08-30T12:45:46;21.20;56.80
8067;DHT22;4076;48.076;9.118;2023-08-30T12:48:12;21.00;57.90
8067;DHT22;4076;48.076;9.118;2023-08-30T12:50:39;21.00;56.30
8067;DHT22;4076;48.076;9.118;2023-08-30T12:53:05;21.00;57.90
8067;DHT22;4076;48.076;9.118;2023-08-30T12:55:31;21.00;58.20
8067;DHT22;4076;48.076;9.118;2023-08-30T12:57:57;21.10;58.30
8067;DHT22;4076;48.076;9.118;2023-08-30T13:00:23;21.10;58.50
8067;DHT22;4076;48.076;9.118;2023-08-30T13:02:49;21.10;57.80
8067;DHT22;4076;48.076;9.118;2023-08-30T13:05:15;21.20;56.60
8067;DHT22;4076;48.076;9.118;2023-08-30T13:07:40;21.00;56.70
8067;DHT22;4076;48.076;9.118;2023-08-30T13:10:07;20.90;56.80
8067;DHT22;4076;48.076;9.118;2023-08-30T13:12:32;20.80;56.80
8067;DHT22;4076;48.076;9.118;2023-08-30T13:14:58;20.80;58.30
8067;DHT22;4076;48.076;9.118;2023-08-30T13:17:23;20.80;57.00
8067;DHT22;4076;48.076;9.118;2023-08-30T13:19:49;20.80;57.90
8067;DHT22;4076;48.076;9.118;2023-08-30T13:22:15;20.90;58.00
8067;DHT22;4076;48.076;9.118;2023-08-30T13:24:40;20.90;58.20
8067;DHT22;4076;48.076;9.118;2023-08-30T13:27:06;21.00;58.70
8067;DHT22;4076;48.076;9.118;2023-08-30T13:29:31;21.00;59.00
8067;DHT22;4076;48.076;9.118;2023-08-30T13:31:57;21.00;58.40
8067;DHT22;4076;48.076;9.118;2023-08-30T13:34:22;20.90;58.60
8067;DHT22;4076;48.076;9.118;2023-08-30T13:36:48;20.80;59.60
8067;DHT22;4076;48.076;9.118;2023-08-30T13:39:13;20.70;59.50
8067;DHT22;4076;48.076;9.118;2023-08-30T13:41:40;20.50;59.30
8067;DHT22;4076;48.076;9.118;2023-08-30T13:44:06;20.20;59.80
8067;DHT22;4076;48.076;9.118;2023-08-30T13:46:31;19.80;60.70
8067;DHT22;4076;48.076;9.118;2023-08-30T13:48:57;19.50;61.80
8067;DHT22;4076;48.076;9.118;2023-08-30T13:51:24;19.20;63.40
8067;DHT22;4076;48.076;9.118;2023-08-30T13:53:50;18.80;71.10
8067;DHT22;4076;48.076;9.118;2023-08-30T13:56:16;18.30;69.60
8067;DHT22;4076;48.076;9.118;2023-08-30T13:58:41;18.00;71.70
8067;DHT22;4076;48.076;9.118;2023-08-30T14:01:07;17.80;77.30
8067;DHT22;4076;48.076;9.118;2023-08-30T14:03:33;17.60;76.10
8067;DHT22;4076;48.076;9.118;2023-08-30T14:06:02;17.50;78.70
8067;DHT22;4076;48.076;9.118;2023-08-30T14:08:28;17.40;93.80
8067;DHT22;4076;48.076;9.118;2023-08-30T14:10:54;17.30;99.90
8067;DHT22;4076;48.076;9.118;2023-08-30T14:13:20;17.20;99.90
8067;DHT22;4076;48.076;9.118;2023-08-30T14:15:46;17.00;99.90
8067;DHT22;4076;48.076;9.118;2023-08-30T14:18:12;16.90;99.90
8067;DHT22;4076;48.076;9.118;2023-08-30T14:20:37;17.00;99.90
8067;DHT22;4076;48.076;9.118;2023-08-30T14:23:03;17.10;99.90
8067;DHT22;4076;48.076;9.118;2023-08-30T14:25:28;17.20;99.90
8067;DHT22;4076;48.076;9.118;2023-08-30T14:27:54;17.40;99.90
8067;DHT22;4076;48.076;9.118;2023-08-30T14:30:21;17.50;99.90
8067;DHT22;4076;48.076;9.118;2023-08-30T14:32:46;17.70;99.90
8067;DHT22;4076;48.076;9.118;2023-08-30T14:35:12;17.80;99.90
8067;DHT22;4076;48.076;9.118;2023-08-30T14:37:38;17.80;99.90
8067;DHT22;4076;48.076;9.118;2023-08-30T14:40:06;17.80;99.90
8067;DHT22;4076;48.076;9.118;2023-08-30T14:42:32;17.70;99.90
8067;DHT22;4076;48.076;9.118;2023-08-30T14:44:58;17.80;99.90
8067;DHT22;4076;48.076;9.118;2023-08-30T14:47:24;17.80;99.90
8067;DHT22;4076;48.076;9.118;2023-08-30T14:49:56;17.80;99.90
8067;DHT22;4076;48.076;9.118;2023-08-30T14:52:21;17.90;99.90
8067;DHT22;4076;48.076;9.118;2023-08-30T14:54:47;18.00;99.90
8067;DHT22;4076;48.076;9.118;2023-08-30T14:57:13;18.00;99.90
8067;DHT22;4076;48.076;9.118;2023-08-30T14:59:38;18.20;99.90
8067;DHT22;4076;48.076;9.118;2023-08-30T15:02:04;18.20;99.90
8067;DHT22;4076;48.076;9.118;2023-08-30T15:04:30;18.30;99.90
8067;DHT22;4076;48.076;9.118;2023-08-30T15:06:55;18.30;99.90
8067;DHT22;4076;48.076;9.118;2023-08-30T15:09:21;18.40;99.90
8067;DHT22;4076;48.076;9.118;2023-08-30T15:11:46;18.40;99.90
8067;DHT22;4076;48.076;9.118;2023-08-30T15:14:12;18.40;99.90
8067;DHT22;4076;48.076;9.118;2023-08-30T15:16:37;18.50;99.90
8067;DHT22;4076;48.076;9.118;2023-08-30T15:19:03;18.50;99.90
8067;DHT22;4076;48.076;9.118;2023-08-30T15:21:28;18.50;99.90
8067;DHT22;4076;48.076;9.118;2023-08-30T15:23:54;18.40;99.90
8067;DHT22;4076;48.076;9.118;2023-08-30T15:26:19;18.40;99.90
8067;DHT22;4076;48.076;9.118;2023-08-30T15:28:49;18.30;99.90
8067;DHT22;4076;48.076;9.118;2023-08-30T15:31:16;18.30;99.90
8067;DHT22;4076;48.076;9.118;2023-08-30T15:33:44;18.20;99.90
8067;DHT22;4076;48.076;9.118;2023-08-30T15:36:10;18.10;99.90
8067;DHT22;4076;48.076;9.118;2023-08-30T15:38:36;18.00;99.90
8067;DHT22;4076;48.076;9.118;2023-08-30T15:41:08;17.90;99.90
8067;DHT22;4076;48.076;9.118;2023-08-30T15:43:33;17.90;99.90
8067;DHT22;4076;48.076;9.118;2023-08-30T15:46:05;17.80;99.90
8067;DHT22;4076;48.076;9.118;2023-08-30T15:48:31;17.70;99.90
8067;DHT22;4076;48.076;9.118;2023-08-30T15:50:56;17.70;99.90
8067;DHT22;4076;48.076;9.118;2023-08-30T15:53:22;17.70;99.90
8067;DHT22;4076;48.076;9.118;2023-08-30T15:55:47;17.70;99.90
8067;DHT22;4076;48.076;9.118;2023-08-30T15:58:13;17.70;99.90
8067;DHT22;4076;48.076;9.118;2023-08-30T16:00:39;17.70;99.90
8067;DHT22;4076;48.076;9.118;2023-08-30T16:03:06;17.80;99.90